Time;durP1;ratioP1;P1;durP2;ratioP2;P2;SDS_P1;SDS_P2;PMS_P1;PMS_P2;Temp;Humidity;BMP_temperature;BMP_pressure;BME280_temperature;BME280_humidity;BME280_pressure;Samples;Min_cycle;Max_cycle;Signal;HPM_P1;HPM_P2
2022/04/07 00:01:42;;;;;;;3.30;2.37;;;10.00;99.90;;;;;;5026658;28;20237;-85
2022/04/07 00:04:10;;;;;;;4.03;2.23;;;9.90;99.90;;;;;;5020433;28;20292;-81
2022/04/07 00:06:37;;;;;;;2.70;2.20;;;9.90;99.90;;;;;;5022089;28;20246;-82
2022/04/07 00:09:04;;;;;;;5.83;2.53;;;9.90;99.90;;;;;;5018476;28;20653;-82
2022/04/07 00:11:31;;;;;;;3.70;1.90;;;9.90;99.90;;;;;;5023207;28;20262;-83
2022/04/07 00:13:58;;;;;;;5.40;1.80;;;9.90;99.90;;;;;;5023358;28;20278;-82
2022/04/07 00:16:25;;;;;;;5.97;2.17;;;9.90;99.90;;;;;;5024350;28;20216;-83
2022/04/07 00:18:52;;;;;;;1.93;1.70;;;9.90;99.90;;;;;;5024899;28;20262;-82
2022/04/07 00:21:24;;;;;;;3.57;1.50;;;9.90;99.90;;;;;;5020177;28;20298;-82
2022/04/07 00:23:53;;;;;;;4.23;1.70;;;10.00;99.90;;;;;;5023530;28;20534;-82
2022/04/07 00:26:20;;;;;;;3.33;1.23;;;10.00;99.90;;;;;;5023002;28;20672;-82
2022/04/07 00:28:47;;;;;;;2.63;1.30;;;10.00;99.90;;;;;;5022178;28;20208;-82
2022/04/07 00:31:14;;;;;;;4.13;1.30;;;9.90;99.90;;;;;;5025608;28;20700;-81
2022/04/07 00:33:41;;;;;;;4.10;1.50;;;9.90;99.90;;;;;;5022268;28;20204;-81
2022/04/07 00:36:08;;;;;;;9.33;2.43;;;9.80;99.90;;;;;;5023333;28;20257;-83
2022/04/07 00:38:34;;;;;;;5.20;1.13;;;9.60;99.90;;;;;;5020707;28;20279;-81
2022/04/07 00:41:01;;;;;;;3.80;1.50;;;9.60;99.90;;;;;;5021633;28;20316;-82
2022/04/07 00:43:33;;;;;;;6.03;1.67;;;9.50;99.90;;;;;;5023796;28;20272;-83
2022/04/07 00:46:02;;;;;;;5.97;1.93;;;9.50;99.90;;;;;;5005996;28;20223;-82
2022/04/07 00:48:30;;;;;;;3.23;1.50;;;9.40;99.90;;;;;;5020960;28;20293;-82
2022/04/07 00:50:57;;;;;;;8.30;1.43;;;9.40;99.90;;;;;;5023249;28;20241;-81
2022/04/07 00:53:25;;;;;;;5.73;1.37;;;9.40;99.90;;;;;;5020869;28;20215;-82
2022/04/07 00:55:52;;;;;;;3.13;1.27;;;9.40;99.90;;;;;;5023262;28;20220;-81
2022/04/07 00:58:19;;;;;;;7.37;1.67;;;9.40;99.90;;;;;;5023857;28;20227;-83
2022/04/07 01:00:46;;;;;;;3.37;1.57;;;9.30;99.90;;;;;;5024039;28;20211;-82
2022/04/07 01:03:14;;;;;;;4.47;1.50;;;9.30;99.90;;;;;;5013636;28;20298;-81
2022/04/07 01:05:41;;;;;;;6.97;1.70;;;9.30;99.90;;;;;;5013579;28;20290;-83
2022/04/07 01:08:09;;;;;;;6.57;1.43;;;9.30;99.90;;;;;;5003115;28;21106;-83
2022/04/07 01:10:37;;;;;;;10.87;2.00;;;9.20;99.90;;;;;;4984711;28;20210;-82
2022/04/07 01:13:05;;;;;;;3.43;1.80;;;9.20;99.90;;;;;;4989362;28;20216;-83
2022/04/07 01:15:32;;;;;;;7.40;1.70;;;9.20;99.90;;;;;;4985783;28;20212;-82
2022/04/07 01:18:00;;;;;;;6.80;2.03;;;9.20;99.90;;;;;;4987289;28;20233;-81
2022/04/07 01:20:28;;;;;;;5.33;2.30;;;9.20;99.90;;;;;;4985525;28;20257;-80
2022/04/07 01:22:56;;;;;;;7.00;2.00;;;9.30;99.90;;;;;;4986249;28;20206;-81
2022/04/07 01:25:25;;;;;;;5.57;1.97;;;9.20;99.90;;;;;;5004172;28;20206;-82
2022/04/07 01:27:53;;;;;;;5.43;1.60;;;9.20;99.90;;;;;;4984857;28;20622;-81
2022/04/07 01:30:20;;;;;;;4.00;1.93;;;9.20;99.90;;;;;;4985238;28;20867;-80
2022/04/07 01:32:59;;;;;;;3.67;2.13;;;9.20;99.90;;;;;;4983052;28;20338;-82
2022/04/07 01:35:27;;;;;;;6.30;2.37;;;9.20;99.90;;;;;;4983521;28;20228;-84
2022/04/07 01:37:57;;;;;;;4.07;2.10;;;9.20;99.90;;;;;;4987295;28;20217;-82
2022/04/07 01:40:30;;;;;;;4.70;1.93;;;9.20;99.90;;;;;;4984684;28;20307;-81
2022/04/07 01:43:01;;;;;;;4.37;2.20;;;9.20;99.90;;;;;;4998444;28;20234;-81
2022/04/07 01:45:30;;;;;;;7.03;2.90;;;9.20;99.90;;;;;;4985515;28;20222;-84
2022/04/07 01:47:58;;;;;;;8.80;2.20;;;9.20;99.90;;;;;;4986945;28;20213;-83
2022/04/07 01:50:26;;;;;;;9.30;2.70;;;9.20;99.90;;;;;;4988641;28;20208;-82
2022/04/07 01:52:54;;;;;;;6.63;2.03;;;9.20;99.90;;;;;;5008873;28;20229;-84
2022/04/07 01:55:22;;;;;;;6.00;2.17;;;9.10;99.90;;;;;;5003144;28;20763;-82
2022/04/07 01:57:50;;;;;;;5.67;1.77;;;9.10;99.90;;;;;;4990013;28;20772;-81
2022/04/07 02:00:17;;;;;;;5.07;2.47;;;9.20;99.90;;;;;;4988018;28;20297;-83
2022/04/07 02:02:45;;;;;;;6.47;1.90;;;9.20;99.90;;;;;;4990856;28;20206;-81
2022/04/07 02:05:13;;;;;;;6.80;2.13;;;9.30;99.90;;;;;;4992510;28;20894;-82
2022/04/07 02:07:42;;;;;;;6.40;2.10;;;9.30;99.90;;;;;;5021839;28;20217;-82
2022/04/07 02:10:12;;;;;;;15.57;2.27;;;9.30;99.90;;;;;;5026529;28;20255;-82
2022/04/07 02:12:41;;;;;;;7.80;2.37;;;9.40;99.90;;;;;;5009372;28;20316;-81
2022/04/07 02:15:10;;;;;;;3.93;2.20;;;9.40;99.90;;;;;;5024276;28;20357;-84
2022/04/07 02:17:37;;;;;;;6.30;2.47;;;9.40;99.90;;;;;;5027046;28;20213;-83
2022/04/07 02:20:06;;;;;;;4.70;1.77;;;9.40;99.90;;;;;;5007102;28;20208;-83
2022/04/07 02:22:33;;;;;;;6.30;2.00;;;9.50;99.90;;;;;;5009626;28;20242;-82
2022/04/07 02:25:00;;;;;;;5.40;2.27;;;9.50;99.90;;;;;;5009617;28;20292;-83
2022/04/07 02:27:39;;;;;;;10.33;2.20;;;9.60;99.90;;;;;;5009966;28;20279;-82
2022/04/07 02:30:13;;;;;;;6.03;2.10;;;9.60;99.90;;;;;;5007622;28;20283;-80
2022/04/07 02:32:42;;;;;;;8.07;1.93;;;9.60;99.90;;;;;;5008587;28;22696;-83
2022/04/07 02:35:11;;;;;;;5.03;2.10;;;9.60;99.90;;;;;;5009982;28;20313;-82
2022/04/07 02:37:40;;;;;;;9.37;2.43;;;9.60;99.90;;;;;;5011359;28;20236;-82
2022/04/07 02:40:07;;;;;;;6.50;2.10;;;9.60;99.90;;;;;;5009525;28;20323;-82
2022/04/07 02:42:35;;;;;;;4.00;2.07;;;9.60;99.90;;;;;;4996146;28;20272;-83
2022/04/07 02:45:03;;;;;;;8.37;1.90;;;9.60;99.90;;;;;;5010562;28;20221;-82
2022/04/07 02:47:34;;;;;;;8.87;1.90;;;9.60;99.90;;;;;;5008675;28;20198;-84
2022/04/07 02:50:01;;;;;;;6.80;2.20;;;9.60;99.90;;;;;;5011145;28;20201;-82
2022/04/07 02:52:28;;;;;;;8.30;1.70;;;9.70;99.90;;;;;;5028331;28;20296;-84
2022/04/07 02:54:55;;;;;;;6.13;2.10;;;9.70;99.90;;;;;;5027929;28;20209;-83
2022/04/07 02:57:23;;;;;;;12.17;2.00;;;9.60;99.90;;;;;;5013105;28;20229;-83
2022/04/07 02:59:51;;;;;;;9.83;2.50;;;9.80;99.90;;;;;;5010419;28;20572;-82
2022/04/07 03:02:18;;;;;;;9.17;2.10;;;9.80;99.90;;;;;;5029243;28;20200;-81
2022/04/07 03:04:45;;;;;;;9.80;1.80;;;9.70;99.90;;;;;;5010133;28;20204;-82
2022/04/07 03:07:12;;;;;;;8.10;1.80;;;9.80;99.90;;;;;;5014124;28;21217;-83
2022/04/07 03:09:40;;;;;;;5.20;1.93;;;9.80;99.90;;;;;;5028266;28;20232;-84
2022/04/07 03:12:08;;;;;;;6.30;2.43;;;9.80;99.90;;;;;;5011154;28;20598;-82
2022/04/07 03:14:35;;;;;;;5.50;1.77;;;9.80;99.90;;;;;;5011274;28;20224;-82
2022/04/07 03:17:02;;;;;;;5.97;1.90;;;9.70;99.90;;;;;;5010470;28;20910;-81
2022/04/07 03:19:29;;;;;;;4.53;2.60;;;9.60;99.90;;;;;;5007626;28;20276;-81
2022/04/07 03:21:57;;;;;;;5.43;1.80;;;9.60;99.90;;;;;;5012033;28;20219;-81
2022/04/07 03:24:24;;;;;;;9.20;2.20;;;9.60;99.90;;;;;;5027179;28;20208;-82
2022/04/07 03:27:04;;;;;;;4.37;1.80;;;9.60;99.90;;;;;;5011545;28;20258;-81
2022/04/07 03:29:32;;;;;;;4.97;1.60;;;9.60;99.90;;;;;;5027505;28;20225;-80
2022/04/07 03:31:58;;;;;;;8.43;1.83;;;9.70;99.90;;;;;;5010516;28;20669;-81
2022/04/07 03:34:25;;;;;;;4.20;1.90;;;9.80;99.90;;;;;;4993034;28;20212;-81
2022/04/07 03:36:52;;;;;;;5.17;1.53;;;9.80;99.90;;;;;;5006553;28;20228;-83
2022/04/07 03:39:19;;;;;;;7.87;1.90;;;9.90;99.90;;;;;;5008749;28;20306;-81
2022/04/07 03:41:46;;;;;;;5.40;1.90;;;9.90;99.90;;;;;;5010293;28;20618;-81
2022/04/07 03:44:15;;;;;;;6.17;1.80;;;10.00;99.90;;;;;;5009215;28;20291;-82
2022/04/07 03:46:41;;;;;;;7.80;2.10;;;9.90;99.90;;;;;;5007391;28;20737;-83
2022/04/07 03:49:08;;;;;;;3.90;1.57;;;10.00;99.90;;;;;;5007319;28;20209;-81
2022/04/07 03:51:35;;;;;;;6.03;2.10;;;10.00;99.90;;;;;;5008724;28;20234;-82
2022/04/07 03:54:09;;;;;;;4.70;1.20;;;9.90;99.90;;;;;;5008432;28;20663;-82
2022/04/07 03:56:38;;;;;;;5.87;1.53;;;10.00;99.90;;;;;;5024276;28;20268;-82
2022/04/07 03:59:05;;;;;;;5.10;1.57;;;10.00;99.90;;;;;;5007681;28;20247;-81
2022/04/07 04:01:32;;;;;;;8.43;1.50;;;9.80;99.90;;;;;;5020303;28;20276;-82
2022/04/07 04:04:01;;;;;;;4.40;1.60;;;9.80;99.90;;;;;;5006055;28;20567;-81
2022/04/07 04:06:30;;;;;;;8.93;1.83;;;9.80;99.90;;;;;;5008400;28;20237;-81
2022/04/07 04:08:57;;;;;;;5.40;1.67;;;9.80;99.90;;;;;;5002496;28;20519;-82
2022/04/07 04:11:24;;;;;;;5.10;1.40;;;9.80;99.90;;;;;;5007445;28;20254;-80
2022/04/07 04:13:50;;;;;;;3.40;1.47;;;9.90;99.90;;;;;;5010567;28;20630;-80
2022/04/07 04:16:17;;;;;;;9.90;2.50;;;9.90;99.90;;;;;;5010622;28;20293;-82
2022/04/07 04:18:45;;;;;;;5.53;1.73;;;9.90;99.90;;;;;;5009049;28;20313;-80
2022/04/07 04:21:12;;;;;;;4.93;1.90;;;9.90;99.90;;;;;;4993138;28;20204;-80
2022/04/07 04:23:40;;;;;;;7.30;1.90;;;9.90;99.90;;;;;;4996935;28;20200;-82
2022/04/07 04:26:07;;;;;;;7.07;2.03;;;9.90;99.90;;;;;;5008817;28;20204;-80
2022/04/07 04:28:34;;;;;;;7.37;1.70;;;10.00;99.90;;;;;;5008575;28;20286;-80
2022/04/07 04:31:01;;;;;;;6.77;2.20;;;10.00;99.90;;;;;;5008167;28;20233;-81
2022/04/07 04:33:28;;;;;;;5.33;1.87;;;10.00;99.90;;;;;;5011857;28;20197;-81
2022/04/07 04:35:58;;;;;;;3.43;1.83;;;10.10;99.90;;;;;;5006651;28;20646;-81
2022/04/07 04:38:25;;;;;;;4.23;1.60;;;10.00;99.90;;;;;;5007872;28;20267;-81
2022/04/07 04:40:53;;;;;;;3.73;1.43;;;10.10;99.90;;;;;;5006868;28;20200;-81
2022/04/07 04:43:20;;;;;;;6.83;1.40;;;10.10;99.90;;;;;;5008544;28;20560;-80
2022/04/07 04:45:47;;;;;;;2.47;1.63;;;10.10;99.90;;;;;;5008828;28;20199;-82
2022/04/07 04:48:16;;;;;;;6.63;1.37;;;10.10;99.90;;;;;;5024662;28;20222;-81
2022/04/07 04:50:43;;;;;;;5.83;1.17;;;10.10;99.90;;;;;;5026193;28;20599;-81
2022/04/07 04:53:10;;;;;;;2.73;1.37;;;10.10;99.90;;;;;;5006667;28;20192;-80
2022/04/07 04:55:38;;;;;;;5.70;1.40;;;10.10;99.90;;;;;;5004487;28;20227;-82
2022/04/07 04:58:05;;;;;;;3.13;1.23;;;10.10;99.90;;;;;;5022644;28;20193;-81
2022/04/07 05:00:32;;;;;;;1.87;1.33;;;10.10;99.90;;;;;;5006790;28;20284;-81
2022/04/07 05:02:59;;;;;;;2.83;1.20;;;10.10;99.90;;;;;;5008311;28;20304;-82
2022/04/07 05:05:27;;;;;;;3.07;1.47;;;10.10;99.90;;;;;;5006956;28;20240;-81
2022/04/07 05:07:54;;;;;;;3.80;1.40;;;10.20;99.90;;;;;;5005337;28;20285;-81
2022/04/07 05:10:22;;;;;;;1.03;0.80;;;10.10;99.90;;;;;;5002421;28;22199;-82
2022/04/07 05:12:49;;;;;;;3.07;1.10;;;10.10;99.90;;;;;;5003322;28;20687;-80
2022/04/07 05:15:16;;;;;;;2.77;1.20;;;10.10;99.90;;;;;;5010834;28;20253;-81
2022/04/07 05:17:50;;;;;;;3.53;1.10;;;10.00;99.90;;;;;;5012250;28;20228;-81
2022/04/07 05:20:17;;;;;;;2.40;0.90;;;9.90;99.90;;;;;;5004466;28;20719;-80
2022/04/07 05:22:45;;;;;;;3.77;0.90;;;9.90;99.90;;;;;;5008211;28;20649;-82
2022/04/07 05:25:12;;;;;;;3.17;1.10;;;9.80;99.90;;;;;;5004662;28;20208;-84
2022/04/07 05:27:40;;;;;;;2.73;1.20;;;9.80;99.90;;;;;;5006020;28;20700;-83
2022/04/07 05:30:12;;;;;;;2.03;0.93;;;9.80;99.90;;;;;;5008997;28;20592;-81
2022/04/07 05:32:39;;;;;;;1.57;0.90;;;9.80;99.90;;;;;;5010356;28;20355;-83
2022/04/07 05:35:07;;;;;;;2.10;1.20;;;9.70;99.90;;;;;;5011684;28;20197;-83
2022/04/07 05:37:34;;;;;;;1.37;1.20;;;9.70;99.90;;;;;;5029601;28;20247;-85
2022/04/07 05:40:01;;;;;;;2.60;1.27;;;9.70;99.90;;;;;;5009289;28;20322;-81
2022/04/07 05:42:31;;;;;;;3.13;1.00;;;9.60;99.90;;;;;;5029332;28;20625;-81
2022/04/07 05:44:58;;;;;;;2.00;1.10;;;9.60;99.90;;;;;;5008096;28;20210;-84
2022/04/07 05:47:27;;;;;;;2.00;1.13;;;9.60;99.90;;;;;;5027616;28;20211;-80
2022/04/07 05:49:54;;;;;;;2.00;1.23;;;9.50;99.90;;;;;;5012493;28;20365;-82
2022/04/07 05:52:22;;;;;;;3.33;1.00;;;9.50;99.90;;;;;;5011990;28;20223;-82
2022/04/07 05:54:49;;;;;;;1.50;0.97;;;9.50;99.90;;;;;;5010428;28;20271;-82
2022/04/07 05:57:15;;;;;;;1.97;0.90;;;9.50;99.90;;;;;;5026788;28;20672;-80
2022/04/07 05:59:42;;;;;;;3.67;1.03;;;9.50;99.90;;;;;;5030241;28;20688;-80
2022/04/07 06:02:09;;;;;;;3.67;1.20;;;9.50;99.90;;;;;;5008301;28;20267;-81
2022/04/07 06:04:39;;;;;;;2.07;1.20;;;9.40;99.90;;;;;;5027800;28;20204;-81
2022/04/07 06:07:06;;;;;;;4.27;1.30;;;9.40;99.90;;;;;;5012989;28;20266;-80
2022/04/07 06:09:34;;;;;;;4.47;1.30;;;9.40;99.90;;;;;;5016763;28;20199;-84
2022/04/07 06:12:01;;;;;;;5.00;1.50;;;9.30;99.90;;;;;;4994798;28;20267;-83
2022/04/07 06:14:28;;;;;;;5.70;1.73;;;9.30;99.90;;;;;;5013426;28;20275;-85
2022/04/07 06:16:55;;;;;;;5.60;1.63;;;9.30;99.90;;;;;;5010263;28;20608;-83
2022/04/07 06:19:23;;;;;;;4.60;1.50;;;9.40;99.90;;;;;;5030067;28;20216;-84
2022/04/07 06:21:50;;;;;;;3.93;1.53;;;9.30;99.90;;;;;;5012637;28;20283;-83
2022/04/07 06:24:19;;;;;;;3.23;1.53;;;9.30;99.90;;;;;;5013914;28;20192;-84
2022/04/07 06:26:46;;;;;;;2.47;1.30;;;9.30;99.90;;;;;;5013666;28;20218;-84
2022/04/07 06:29:12;;;;;;;3.60;1.40;;;9.30;99.90;;;;;;5030607;28;20214;-83
2022/04/07 06:31:41;;;;;;;4.07;1.60;;;9.30;99.90;;;;;;5023689;28;22097;-84
2022/04/07 06:34:20;;;;;;;3.70;1.47;;;9.30;99.90;;;;;;5011785;28;20221;-82
2022/04/07 06:36:49;;;;;;;3.00;1.67;;;9.30;99.90;;;;;;5012197;28;20226;-85
2022/04/07 06:39:16;;;;;;;2.57;1.53;;;9.30;99.90;;;;;;5008984;28;20449;-84
2022/04/07 06:41:42;;;;;;;5.53;1.80;;;9.30;99.90;;;;;;5013110;28;20670;-83
2022/04/07 06:44:10;;;;;;;4.43;1.90;;;9.30;99.90;;;;;;5013794;28;20623;-83
2022/04/07 06:46:36;;;;;;;3.23;1.47;;;9.30;99.90;;;;;;4985169;28;20208;-84
2022/04/07 06:49:03;;;;;;;6.30;1.73;;;9.30;99.90;;;;;;4981547;28;20208;-82
2022/04/07 06:51:30;;;;;;;2.97;1.40;;;9.30;99.90;;;;;;5013581;28;20219;-82
2022/04/07 06:53:57;;;;;;;2.83;1.60;;;9.30;99.90;;;;;;5015651;28;20223;-83
2022/04/07 06:56:24;;;;;;;3.43;1.33;;;9.30;99.90;;;;;;5015942;28;20233;-83
2022/04/07 06:58:55;;;;;;;3.73;1.40;;;9.30;99.90;;;;;;5017903;28;20218;-85
2022/04/07 07:01:22;;;;;;;3.93;1.50;;;9.20;99.90;;;;;;5034907;28;20213;-87
2022/04/07 07:03:49;;;;;;;2.60;1.30;;;9.30;99.90;;;;;;5014113;28;20657;-83
2022/04/07 07:06:16;;;;;;;4.97;1.37;;;9.30;99.90;;;;;;5028246;28;20615;-82
2022/04/07 07:08:43;;;;;;;4.87;1.60;;;9.30;99.90;;;;;;5012534;28;20228;-80
2022/04/07 07:11:11;;;;;;;2.90;1.27;;;9.30;99.90;;;;;;5010491;28;20552;-81
2022/04/07 07:13:38;;;;;;;1.80;0.70;;;9.40;99.90;;;;;;5011935;28;20227;-83
2022/04/07 07:16:07;;;;;;;1.47;0.53;;;8.60;99.90;;;;;;5011162;28;20598;-81
2022/04/07 07:18:34;;;;;;;2.97;0.30;;;8.10;99.90;;;;;;5027501;28;20205;-81
2022/04/07 07:21:01;;;;;;;0.80;0.30;;;7.80;99.90;;;;;;5026635;28;20310;-80
2022/04/07 07:23:28;;;;;;;0.80;0.30;;;7.50;99.90;;;;;;5028814;28;20291;-79
2022/04/07 07:25:54;;;;;;;1.97;0.33;;;7.40;99.90;;;;;;5009592;28;20286;-83
2022/04/07 07:28:22;;;;;;;0.73;0.30;;;7.50;99.90;;;;;;5011773;28;20261;-82
2022/04/07 07:30:49;;;;;;;1.77;0.40;;;7.60;99.90;;;;;;5009232;28;20211;-80
2022/04/07 07:33:16;;;;;;;2.00;0.43;;;7.60;99.90;;;;;;5010279;28;20299;-82
2022/04/07 07:35:46;;;;;;;0.50;0.30;;;7.60;99.90;;;;;;5007923;28;20375;-81
2022/04/07 07:38:13;;;;;;;2.37;0.40;;;7.40;99.90;;;;;;4992019;28;20529;-80
2022/04/07 07:40:40;;;;;;;4.63;0.60;;;7.50;99.90;;;;;;5031842;28;20220;-82
2022/04/07 07:43:07;;;;;;;2.80;0.60;;;7.50;99.90;;;;;;5012726;28;20203;-80
2022/04/07 07:45:34;;;;;;;1.60;0.60;;;7.60;99.90;;;;;;5013115;28;20227;-82
2022/04/07 07:48:30;;;;;;;0.77;0.50;;;7.50;99.90;;;;;;5027705;28;20201;-82
2022/04/07 07:50:58;;;;;;;2.70;0.50;;;7.40;99.90;;;;;;5026423;28;20309;-82
2022/04/07 07:53:25;;;;;;;3.23;0.90;;;7.50;99.90;;;;;;5025652;28;20293;-81
2022/04/07 07:55:54;;;;;;;3.50;0.90;;;7.50;99.90;;;;;;5010790;28;20236;-84
2022/04/07 07:58:26;;;;;;;3.83;0.70;;;7.40;99.90;;;;;;5008746;28;20208;-79
2022/04/07 08:00:54;;;;;;;2.93;0.70;;;7.50;99.90;;;;;;5006431;28;20229;-80
2022/04/07 08:03:22;;;;;;;4.67;1.17;;;7.30;99.90;;;;;;5027898;28;20265;-82
2022/04/07 08:05:50;;;;;;;2.10;0.80;;;7.40;99.90;;;;;;5011335;28;20657;-80
2022/04/07 08:08:17;;;;;;;4.03;1.00;;;7.50;99.90;;;;;;5025557;28;20645;-82
2022/04/07 08:10:44;;;;;;;2.77;0.90;;;7.40;99.90;;;;;;5026987;28;20205;-80
2022/04/07 08:13:12;;;;;;;2.27;0.80;;;7.60;99.90;;;;;;5003729;28;20220;-80
2022/04/07 08:15:40;;;;;;;5.30;1.20;;;7.50;99.90;;;;;;5006644;28;20216;-80
2022/04/07 08:18:08;;;;;;;5.80;1.20;;;7.30;99.90;;;;;;5022062;28;20201;-83
2022/04/07 08:20:35;;;;;;;2.07;0.90;;;7.50;99.90;;;;;;5006781;28;20226;-80
2022/04/07 08:23:02;;;;;;;4.97;0.80;;;7.60;99.90;;;;;;5026764;28;20231;-83
2022/04/07 08:25:30;;;;;;;4.67;1.30;;;7.70;99.90;;;;;;5012809;28;20239;-82
2022/04/07 08:27:58;;;;;;;5.33;2.70;;;7.60;99.90;;;;;;5008709;28;20197;-81
2022/04/07 08:30:25;;;;;;;3.73;1.20;;;7.50;99.90;;;;;;5029634;28;20202;-81
2022/04/07 08:32:52;;;;;;;5.27;1.33;;;7.40;99.90;;;;;;5010087;28;20300;-82
2022/04/07 08:35:19;;;;;;;4.23;1.00;;;7.50;99.90;;;;;;5027295;28;20884;-81
2022/04/07 08:37:47;;;;;;;8.23;1.07;;;7.70;99.90;;;;;;5019982;28;20216;-82
2022/04/07 08:40:18;;;;;;;6.57;1.10;;;7.80;99.90;;;;;;5029036;28;20257;-81
2022/04/07 08:42:45;;;;;;;3.03;0.93;;;7.60;99.90;;;;;;5009104;28;20251;-81
2022/04/07 08:45:14;;;;;;;4.50;0.83;;;7.80;99.90;;;;;;5010467;28;20284;-83
2022/04/07 08:47:41;;;;;;;2.63;0.77;;;7.80;99.90;;;;;;5028790;28;20212;-83
2022/04/07 08:50:12;;;;;;;3.47;0.60;;;7.90;99.90;;;;;;5011610;28;20213;-81
2022/04/07 08:52:39;;;;;;;2.23;0.80;;;8.50;99.90;;;;;;5004582;28;20725;-82
2022/04/07 08:55:06;;;;;;;0.97;0.80;;;8.70;99.90;;;;;;5018878;28;20213;-82
2022/04/07 08:57:36;;;;;;;1.73;0.70;;;9.00;99.90;;;;;;5011739;28;20219;-80
2022/04/07 09:00:04;;;;;;;3.23;0.90;;;9.00;99.90;;;;;;5028780;28;20222;-82
2022/04/07 09:02:31;;;;;;;4.23;0.80;;;9.40;99.90;;;;;;5029545;28;20237;-81
2022/04/07 09:04:59;;;;;;;2.90;0.73;;;9.70;99.90;;;;;;5010148;28;20223;-81
2022/04/07 09:07:31;;;;;;;1.93;0.60;;;9.90;99.90;;;;;;5008429;28;20240;-80
2022/04/07 09:10:00;;;;;;;3.90;0.53;;;10.00;99.90;;;;;;5002101;28;20204;-81
2022/04/07 09:12:27;;;;;;;4.43;0.57;;;10.20;99.90;;;;;;5020175;28;20205;-81
2022/04/07 09:14:59;;;;;;;2.50;0.63;;;10.60;99.90;;;;;;5004219;28;20258;-80
2022/04/07 09:17:27;;;;;;;6.83;1.13;;;10.70;99.90;;;;;;5004057;28;20216;-81
2022/04/07 09:19:54;;;;;;;1.93;0.77;;;10.60;99.90;;;;;;5001907;28;20721;-82
2022/04/07 09:22:31;;;;;;;4.27;0.80;;;10.60;99.90;;;;;;4988427;28;20271;-81
2022/04/07 09:25:05;;;;;;;3.23;0.80;;;10.90;99.90;;;;;;5005279;28;20652;-82
2022/04/07 09:27:32;;;;;;;2.97;0.67;;;10.80;99.90;;;;;;5004387;28;20213;-81
2022/04/07 09:30:00;;;;;;;2.17;1.00;;;10.60;99.90;;;;;;5001117;28;20643;-83
2022/04/07 09:32:28;;;;;;;2.30;0.77;;;10.70;99.90;;;;;;5000783;28;20225;-82
2022/04/07 09:34:57;;;;;;;3.10;0.67;;;10.80;99.90;;;;;;5007839;28;20205;-81
2022/04/07 09:37:28;;;;;;;5.00;0.90;;;10.80;99.90;;;;;;4991232;28;20287;-81
2022/04/07 09:40:14;;;;;;;2.83;0.87;;;10.90;99.90;;;;;;4983660;28;20308;-80
2022/04/07 09:42:42;;;;;;;2.67;0.70;;;10.80;99.90;;;;;;4990856;28;20197;-80
2022/04/07 09:45:12;;;;;;;2.63;0.90;;;11.00;99.90;;;;;;4992303;28;20768;-80
2022/04/07 09:47:49;;;;;;;2.90;0.67;;;11.30;99.90;;;;;;4990660;28;20212;-82
2022/04/07 09:50:23;;;;;;;5.57;1.20;;;11.40;99.90;;;;;;5008574;28;20213;-80
2022/04/07 09:53:03;;;;;;;2.93;1.07;;;11.90;99.90;;;;;;4983498;28;20197;-79
2022/04/07 09:55:41;;;;;;;5.10;0.90;;;11.80;99.90;;;;;;5006803;28;20255;-83
2022/04/07 09:58:11;;;;;;;5.40;0.97;;;11.60;99.90;;;;;;4988889;28;20565;-82
2022/04/07 10:00:40;;;;;;;6.53;1.07;;;11.80;99.90;;;;;;4987697;28;20240;-82
2022/04/07 10:03:10;;;;;;;3.20;0.57;;;11.60;99.90;;;;;;4986653;28;20209;-83
2022/04/07 10:05:38;;;;;;;3.80;0.67;;;11.60;99.90;;;;;;5008440;28;20339;-79
2022/04/07 10:08:06;;;;;;;2.70;0.77;;;11.80;99.90;;;;;;5004931;28;21005;-80
2022/04/07 10:10:35;;;;;;;4.13;1.00;;;12.10;99.90;;;;;;5005104;28;20223;-80
2022/04/07 10:13:02;;;;;;;5.30;1.17;;;12.00;99.90;;;;;;5000611;28;20224;-81
2022/04/07 10:15:31;;;;;;;3.70;0.80;;;11.70;99.90;;;;;;4992552;28;20280;-80
2022/04/07 10:18:05;;;;;;;5.90;1.10;;;11.60;99.90;;;;;;4992874;28;20692;-80
2022/04/07 10:20:41;;;;;;;4.13;0.90;;;11.70;99.90;;;;;;5008132;28;20555;-81
2022/04/07 10:23:13;;;;;;;6.43;1.27;;;11.70;99.90;;;;;;5009529;28;20676;-80
2022/04/07 10:25:49;;;;;;;6.30;0.93;;;11.80;99.90;;;;;;5008706;28;20350;-80
2022/04/07 10:28:22;;;;;;;3.33;1.00;;;11.70;99.90;;;;;;4989639;28;20664;-79
2022/04/07 10:30:50;;;;;;;5.40;1.33;;;12.00;99.90;;;;;;5008007;28;20828;-80
2022/04/07 10:33:34;;;;;;;3.03;1.00;;;12.20;99.90;;;;;;4989354;28;20218;-80
2022/04/07 10:36:08;;;;;;;6.00;1.27;;;12.20;99.90;;;;;;5008668;28;20312;-81
2022/04/07 10:38:41;;;;;;;3.80;1.20;;;12.20;99.90;;;;;;5009268;28;20210;-80
2022/04/07 10:41:09;;;;;;;4.90;1.27;;;11.90;99.90;;;;;;5011844;28;20224;-81
2022/04/07 10:43:38;;;;;;;5.63;1.13;;;11.70;99.90;;;;;;4999785;28;20201;-80
2022/04/07 10:46:16;;;;;;;3.97;1.20;;;11.60;99.90;;;;;;5008712;28;20213;-81
2022/04/07 10:49:03;;;;;;;8.10;2.37;;;11.70;99.90;;;;;;4986609;28;20209;-80
2022/04/07 10:51:45;;;;;;;5.80;1.20;;;11.40;99.90;;;;;;4992167;28;20710;-81
2022/04/07 10:54:13;;;;;;;8.17;1.20;;;11.40;99.90;;;;;;5013186;28;20228;-81
2022/04/07 10:56:46;;;;;;;5.07;1.20;;;11.30;99.90;;;;;;4994657;28;20328;-82
2022/04/07 10:59:21;;;;;;;6.87;1.40;;;11.20;99.90;;;;;;4984269;28;20261;-80
2022/04/07 11:01:56;;;;;;;1.90;0.90;;;11.20;99.90;;;;;;5008697;28;20247;-80
2022/04/07 11:04:23;;;;;;;5.00;1.20;;;11.30;99.90;;;;;;4988901;28;20267;-80
2022/04/07 11:07:15;;;;;;;6.23;1.53;;;11.20;99.90;;;;;;5022011;28;20237;-81
2022/04/07 11:09:45;;;;;;;6.13;1.83;;;11.20;99.90;;;;;;5008174;28;20624;-80
2022/04/07 11:12:17;;;;;;;7.07;1.67;;;11.30;99.90;;;;;;5027644;28;20220;-81
2022/04/07 11:14:50;;;;;;;9.40;3.57;;;11.10;99.90;;;;;;5026856;28;20279;-80
2022/04/07 11:17:36;;;;;;;6.77;1.40;;;11.00;99.90;;;;;;5006421;28;20200;-80
2022/04/07 11:20:15;;;;;;;7.60;1.30;;;10.90;99.90;;;;;;5029972;28;20209;-80
2022/04/07 11:22:56;;;;;;;8.60;1.67;;;10.80;99.90;;;;;;5002702;28;20200;-80
2022/04/07 11:25:31;;;;;;;7.13;1.70;;;10.70;99.90;;;;;;5023274;28;20224;-80
2022/04/07 11:28:07;;;;;;;7.43;1.27;;;10.50;99.90;;;;;;5026769;28;20305;-80
2022/04/07 11:30:44;;;;;;;7.20;1.30;;;10.50;99.90;;;;;;5004582;28;20233;-82
2022/04/07 11:33:26;;;;;;;5.77;1.20;;;10.40;99.90;;;;;;5012443;28;20220;-80
2022/04/07 11:35:58;;;;;;;5.93;1.27;;;10.40;99.90;;;;;;5027330;28;20200;-81
2022/04/07 11:38:35;;;;;;;6.67;1.20;;;10.40;99.90;;;;;;5026889;28;20203;-80
2022/04/07 11:41:10;;;;;;;5.50;1.53;;;10.40;99.90;;;;;;5006202;28;20228;-79
2022/04/07 11:43:42;;;;;;;3.77;1.10;;;10.50;99.90;;;;;;5012047;28;20220;-80
2022/04/07 11:46:10;;;;;;;11.30;2.43;;;10.50;99.90;;;;;;5026171;28;20223;-81
2022/04/07 11:48:57;;;;;;;3.90;1.40;;;10.50;99.90;;;;;;5014659;28;20210;-81
2022/04/07 11:51:26;;;;;;;5.43;0.73;;;10.50;99.90;;;;;;5030864;28;20215;-80
2022/04/07 11:53:54;;;;;;;6.30;0.90;;;10.70;99.90;;;;;;5031976;28;20236;-80
2022/04/07 11:56:27;;;;;;;7.00;1.57;;;11.00;99.90;;;;;;5033131;28;20224;-83
2022/04/07 11:58:59;;;;;;;7.03;1.43;;;11.00;99.90;;;;;;5009152;28;20212;-81
2022/04/07 12:01:28;;;;;;;5.00;1.10;;;10.90;99.90;;;;;;5004437;28;20208;-80
2022/04/07 12:04:00;;;;;;;9.27;1.87;;;10.80;99.90;;;;;;5013012;28;21054;-81
2022/04/07 12:06:29;;;;;;;11.33;1.73;;;10.80;99.90;;;;;;5029141;28;20232;-82
2022/04/07 12:08:58;;;;;;;5.37;1.60;;;10.70;99.90;;;;;;5010593;28;20201;-80
2022/04/07 12:11:27;;;;;;;10.57;1.53;;;10.70;99.90;;;;;;5007461;28;20285;-80
2022/04/07 12:13:56;;;;;;;5.67;1.20;;;10.60;99.90;;;;;;5018378;28;20311;-81
2022/04/07 12:16:24;;;;;;;8.97;1.77;;;10.70;99.90;;;;;;5001469;28;20208;-80
2022/04/07 12:18:56;;;;;;;10.13;2.27;;;10.70;99.90;;;;;;5004011;28;20217;-82
2022/04/07 12:21:25;;;;;;;9.20;1.23;;;10.70;99.90;;;;;;5009822;28;20327;-80
2022/04/07 12:24:13;;;;;;;9.13;1.67;;;10.60;99.90;;;;;;5021308;28;22018;-80
2022/04/07 12:26:47;;;;;;;9.10;1.30;;;10.70;99.90;;;;;;5006276;28;20291;-82
2022/04/07 12:29:17;;;;;;;12.50;2.63;;;10.60;99.90;;;;;;5024091;28;20286;-82
2022/04/07 12:31:45;;;;;;;9.93;1.77;;;10.60;99.90;;;;;;5025263;28;20811;-80
2022/04/07 12:34:19;;;;;;;11.00;1.93;;;10.60;99.90;;;;;;5008419;28;20325;-81
2022/04/07 12:36:46;;;;;;;8.20;1.40;;;10.70;99.90;;;;;;5010647;28;20244;-81
2022/04/07 12:39:15;;;;;;;5.87;1.40;;;10.70;99.90;;;;;;5028074;28;20224;-80
2022/04/07 12:41:44;;;;;;;7.57;1.67;;;10.70;99.90;;;;;;5024446;28;21409;-80
2022/04/07 12:44:23;;;;;;;4.43;1.13;;;10.70;99.90;;;;;;5021837;28;20205;-79
2022/04/07 12:46:55;;;;;;;8.67;1.63;;;10.80;99.90;;;;;;5019453;28;20239;-78
2022/04/07 12:49:33;;;;;;;6.83;1.60;;;10.80;99.90;;;;;;5020359;28;20311;-80
2022/04/07 12:52:11;;;;;;;6.40;1.40;;;10.70;99.90;;;;;;5006452;28;20267;-78
2022/04/07 12:54:58;;;;;;;6.07;1.30;;;10.70;99.90;;;;;;5021874;28;20208;-79
2022/04/07 12:57:40;;;;;;;5.40;1.60;;;10.80;99.90;;;;;;4999334;28;20240;-79
2022/04/07 13:00:27;;;;;;;6.03;1.47;;;10.90;99.90;;;;;;5002402;28;20299;-79
2022/04/07 13:03:01;;;;;;;7.43;1.60;;;11.00;99.90;;;;;;5019193;28;20220;-79
2022/04/07 13:05:30;;;;;;;7.80;1.20;;;10.90;99.90;;;;;;4998437;28;20219;-79